Flugplatz Ailertchen

Für EDGA sind keine METAR/TAF Berichte vorhanden.
Es werden die Flugwettermeldungen vom Flugplatz Siegerland in 16 km Entfernung angezeigt.

Bericht für EDGS

vom 17.09. um 13:50 UTC

Wind 13 kt aus 290°

Sichtweite 10 km oder mehr

aufgebrochene Bewölkung in 2900 ft

Temperatur 13.0°C

Taupunkt 6.0°C

Luftfeuchtigkeit 62%

Luftdruck 1020 hPa

EDGS 171350Z 29013KT 260V320 9999 BKN029 13/06 Q1020

Prognose für EDGS

vom 17.09. um 00:00 UTC

Zwischen 00:00 UTC und 00:00 UTC

Wind 12 kt aus 300°

Sichtweite 10 km oder mehr

aufgebrochene Bewölkung in 2500 ft


Zwischen 00:00 UTC und 00:00 UTC zeitweise

Wind 15 kt aus 310° in Böen 25 kt

TAF EDGS 171100Z 1712/1721 30012KT 9999 BKN025 TEMPO 1712/1718 31015G25KT
Impressum